Time,TemperatureF,DewpointF,PressureIn,WindDirection,WindDirectionDegrees,WindSpeedMPH,WindSpeedGustMPH,Humidity,HourlyPrecipIn,Conditions,Clouds,dailyrainin,SolarRadiationWatts/m^2,SoftwareType,DateUTC
2013-06-15 00:12:00,66.0,65.0,-100.00,NNW,339,0.0,2.0,95,0.00,,,0.00,1.000000,,2013-06-15 05:12:00,
2013-06-15 00:22:00,66.0,65.0,-100.00,NNW,339,0.0,2.0,95,0.00,,,0.00,1.000000,,2013-06-15 05:22:00,
2013-06-15 00:34:00,66.0,65.0,-100.00,NNW,339,0.0,2.0,95,0.00,,,0.00,1.000000,,2013-06-15 05:34:00,
2013-06-15 00:43:00,66.0,65.0,-100.00,NNW,339,0.0,2.0,95,0.00,,,0.00,1.000000,,2013-06-15 05:43:00,
2013-06-15 00:52:00,66.0,65.0,-100.00,NNW,339,0.0,2.0,95,0.00,,,0.00,1.000000,,2013-06-15 05:52:00,
2013-06-15 00:53:00,65.0,64.0,-100.00,East,92,0.0,0.0,95,0.00,,,0.00,1.000000,,2013-06-15 05:53:00,
2013-06-15 01:12:00,65.0,64.0,-100.00,East,92,0.0,0.0,95,0.00,,,0.00,1.000000,,2013-06-15 06:12:00,
2013-06-15 01:24:00,65.0,64.0,-100.00,East,92,0.0,0.0,95,0.00,,,0.00,1.000000,,2013-06-15 06:24:00,
2013-06-15 01:33:00,65.0,64.0,-100.00,East,92,0.0,0.0,95,0.00,,,0.00,1.000000,,2013-06-15 06:33:00,
2013-06-15 01:43:00,65.0,64.0,-100.00,East,92,0.0,0.0,95,0.00,,,0.00,1.000000,,2013-06-15 06:43:00,
2013-06-15 01:53:00,64.0,63.0,-100.00,SSW,210,0.0,0.0,97,0.00,,,0.00,1.000000,,2013-06-15 06:53:00,
2013-06-15 02:11:00,64.0,63.0,-100.00,SSW,210,0.0,0.0,97,0.00,,,0.00,1.000000,,2013-06-15 07:11:00,
2013-06-15 02:23:00,64.0,63.0,-100.00,SSW,210,0.0,0.0,97,0.00,,,0.00,1.000000,,2013-06-15 07:23:00,
2013-06-15 02:33:00,64.0,63.0,-100.00,SSW,210,0.0,0.0,97,0.00,,,0.00,1.000000,,2013-06-15 07:33:00,
2013-06-15 02:43:00,64.0,63.0,-100.00,SSW,210,0.0,0.0,97,0.00,,,0.00,1.000000,,2013-06-15 07:43:00,
2013-06-15 02:53:00,63.0,62.0,-100.00,West,270,0.0,2.0,97,0.00,,,0.00,1.000000,,2013-06-15 07:53:00,
2013-06-15 03:11:00,63.0,62.0,-100.00,West,270,0.0,2.0,97,0.00,,,0.00,1.000000,,2013-06-15 08:11:00,
2013-06-15 03:22:00,63.0,62.0,-100.00,West,270,0.0,2.0,97,0.00,,,0.00,1.000000,,2013-06-15 08:22:00,
2013-06-15 03:33:00,63.0,62.0,-100.00,West,270,0.0,2.0,97,0.00,,,0.00,1.000000,,2013-06-15 08:33:00,
2013-06-15 03:42:00,63.0,62.0,-100.00,West,270,0.0,2.0,97,0.00,,,0.00,1.000000,,2013-06-15 08:42:00,
2013-06-15 04:12:00,62.0,61.0,-100.00,North,356,0.0,2.0,97,0.00,,,0.00,1.000000,,2013-06-15 09:12:00,
2013-06-15 04:22:00,62.0,61.0,-100.00,North,356,0.0,2.0,97,0.00,,,0.00,1.000000,,2013-06-15 09:22:00,
2013-06-15 04:33:00,62.0,61.0,-100.00,North,356,0.0,2.0,97,0.00,,,0.00,1.000000,,2013-06-15 09:33:00,
2013-06-15 04:43:00,62.0,61.0,-100.00,North,356,0.0,2.0,97,0.00,,,0.00,1.000000,,2013-06-15 09:43:00,
2013-06-15 04:52:00,62.0,61.0,-100.00,North,356,0.0,2.0,97,0.00,,,0.00,1.000000,,2013-06-15 09:52:00,
2013-06-15 04:53:00,61.0,60.0,-100.00,NNW,327,0.0,0.0,98,0.00,,,0.00,1.000000,,2013-06-15 09:53:00,
2013-06-15 05:11:00,61.0,60.0,-100.00,NNW,327,0.0,0.0,98,0.00,,,0.00,1.000000,,2013-06-15 10:11:00,
2013-06-15 05:23:00,61.0,60.0,-100.00,NNW,327,0.0,0.0,98,0.00,,,0.00,1.000000,,2013-06-15 10:23:00,
2013-06-15 05:33:00,61.0,60.0,-100.00,NNW,327,0.0,0.0,98,0.00,,,0.00,1.000000,,2013-06-15 10:33:00,
2013-06-15 05:44:00,61.0,60.0,-100.00,NNW,327,0.0,0.0,98,0.00,,,0.00,1.000000,,2013-06-15 10:44:00,
2013-06-15 05:53:00,61.0,60.0,-100.00,ESE,122,0.0,2.0,98,0.00,,,0.00,1.000000,,2013-06-15 10:53:00,
2013-06-15 06:11:00,61.0,60.0,-100.00,ESE,122,0.0,2.0,98,0.00,,,0.00,1.000000,,2013-06-15 11:11:00,
2013-06-15 06:22:00,61.0,60.0,-100.00,ESE,122,0.0,2.0,98,0.00,,,0.00,1.000000,,2013-06-15 11:22:00,
2013-06-15 06:33:00,61.0,60.0,-100.00,ESE,122,0.0,2.0,98,0.00,,,0.00,1.000000,,2013-06-15 11:33:00,
2013-06-15 06:43:00,61.0,60.0,-100.00,ESE,122,0.0,2.0,98,0.00,,,0.00,1.000000,,2013-06-15 11:43:00,
2013-06-15 07:12:00,61.0,60.0,-100.00,NNE,15,0.0,0.0,97,0.00,,,0.00,31.000000,,2013-06-15 12:12:00,
2013-06-15 07:22:00,61.0,60.0,-100.00,NNE,15,0.0,0.0,97,0.00,,,0.00,31.000000,,2013-06-15 12:22:00,
2013-06-15 07:33:00,61.0,60.0,-100.00,NNE,15,0.0,0.0,97,0.00,,,0.00,31.000000,,2013-06-15 12:33:00,
2013-06-15 07:43:00,61.0,60.0,-100.00,NNE,15,0.0,0.0,97,0.00,,,0.00,31.000000,,2013-06-15 12:43:00,
2013-06-15 07:52:00,61.0,60.0,-100.00,NNE,15,0.0,0.0,97,0.00,,,0.00,31.000000,,2013-06-15 12:52:00,
2013-06-15 07:53:00,66.0,63.0,-100.00,SW,214,0.0,0.0,91,0.00,,,0.00,116.000000,,2013-06-15 12:53:00,
2013-06-15 08:11:00,66.0,63.0,-100.00,SW,214,0.0,0.0,91,0.00,,,0.00,116.000000,,2013-06-15 13:11:00,
2013-06-15 08:22:00,66.0,63.0,-100.00,SW,214,0.0,0.0,91,0.00,,,0.00,116.000000,,2013-06-15 13:22:00,
2013-06-15 08:32:00,66.0,63.0,-100.00,SW,214,0.0,0.0,91,0.00,,,0.00,116.000000,,2013-06-15 13:32:00,
2013-06-15 08:43:00,66.0,63.0,-100.00,SW,214,0.0,0.0,91,0.00,,,0.00,116.000000,,2013-06-15 13:43:00,
2013-06-15 08:53:00,74.0,67.0,-100.00,NNW,333,2.0,5.0,78,0.00,,,0.00,363.000000,,2013-06-15 13:53:00,
2013-06-15 09:12:00,74.0,67.0,-100.00,NNW,333,2.0,5.0,78,0.00,,,0.00,363.000000,,2013-06-15 14:12:00,
2013-06-15 09:22:00,74.0,67.0,-100.00,NNW,333,2.0,5.0,78,0.00,,,0.00,363.000000,,2013-06-15 14:22:00,
2013-06-15 09:34:00,74.0,67.0,-100.00,NNW,333,2.0,5.0,78,0.00,,,0.00,363.000000,,2013-06-15 14:34:00,
2013-06-15 09:43:00,74.0,67.0,-100.00,NNW,333,2.0,5.0,78,0.00,,,0.00,363.000000,,2013-06-15 14:43:00,
2013-06-15 09:53:00,77.0,66.0,-100.00,NNE,17,3.0,5.0,69,0.00,,,0.00,465.000000,,2013-06-15 14:53:00,
2013-06-15 10:11:00,77.0,66.0,-100.00,NNE,17,3.0,5.0,69,0.00,,,0.00,465.000000,,2013-06-15 15:11:00,
2013-06-15 10:22:00,77.0,66.0,-100.00,NNE,17,3.0,5.0,69,0.00,,,0.00,465.000000,,2013-06-15 15:22:00,
2013-06-15 10:33:00,77.0,66.0,-100.00,NNE,17,3.0,5.0,69,0.00,,,0.00,465.000000,,2013-06-15 15:33:00,
2013-06-15 10:43:00,77.0,66.0,-100.00,NNE,17,3.0,5.0,69,0.00,,,0.00,465.000000,,2013-06-15 15:43:00,
2013-06-15 10:53:00,79.0,68.0,-100.00,East,90,4.0,8.0,69,0.00,,,0.00,434.000000,,2013-06-15 15:53:00,
2013-06-15 11:11:00,79.0,68.0,-100.00,East,90,4.0,8.0,69,0.00,,,0.00,434.000000,,2013-06-15 16:11:00,
2013-06-15 11:22:00,79.0,68.0,-100.00,East,90,4.0,8.0,69,0.00,,,0.00,434.000000,,2013-06-15 16:22:00,
2013-06-15 11:33:00,79.0,68.0,-100.00,East,90,4.0,8.0,69,0.00,,,0.00,434.000000,,2013-06-15 16:33:00,
2013-06-15 11:43:00,79.0,68.0,-100.00,East,90,4.0,8.0,69,0.00,,,0.00,434.000000,,2013-06-15 16:43:00,
2013-06-15 12:12:00,82.0,65.0,-100.00,ENE,65,5.0,11.0,57,0.00,,,0.00,861.000000,,2013-06-15 17:12:00,
2013-06-15 12:22:00,82.0,65.0,-100.00,ENE,65,5.0,11.0,57,0.00,,,0.00,861.000000,,2013-06-15 17:22:00,
2013-06-15 12:32:00,82.0,65.0,-100.00,ENE,65,5.0,11.0,57,0.00,,,0.00,861.000000,,2013-06-15 17:32:00,
2013-06-15 12:43:00,82.0,65.0,-100.00,ENE,65,5.0,11.0,57,0.00,,,0.00,861.000000,,2013-06-15 17:43:00,
2013-06-15 12:52:00,82.0,65.0,-100.00,ENE,65,5.0,11.0,57,0.00,,,0.00,861.000000,,2013-06-15 17:52:00,
2013-06-15 12:53:00,84.0,66.0,-100.00,NE,47,7.0,12.0,55,0.00,,,0.00,1020.000000,,2013-06-15 17:53:00,
2013-06-15 13:12:00,84.0,66.0,-100.00,NE,47,7.0,12.0,55,0.00,,,0.00,1020.000000,,2013-06-15 18:12:00,
2013-06-15 13:22:00,84.0,66.0,-100.00,NE,47,7.0,12.0,55,0.00,,,0.00,1020.000000,,2013-06-15 18:22:00,
2013-06-15 13:32:00,84.0,66.0,-100.00,NE,47,7.0,12.0,55,0.00,,,0.00,1020.000000,,2013-06-15 18:32:00,
2013-06-15 13:43:00,84.0,66.0,-100.00,NE,47,7.0,12.0,55,0.00,,,0.00,1020.000000,,2013-06-15 18:43:00,
2013-06-15 14:12:00,85.0,64.0,-100.00,East,88,7.0,13.0,50,0.00,,,0.00,938.000000,,2013-06-15 19:12:00,
2013-06-15 14:22:00,85.0,64.0,-100.00,East,88,7.0,13.0,50,0.00,,,0.00,938.000000,,2013-06-15 19:22:00,
2013-06-15 14:33:00,85.0,64.0,-100.00,East,88,7.0,13.0,50,0.00,,,0.00,938.000000,,2013-06-15 19:33:00,
2013-06-15 14:43:00,85.0,64.0,-100.00,East,88,7.0,13.0,50,0.00,,,0.00,938.000000,,2013-06-15 19:43:00,
2013-06-15 14:52:00,85.0,64.0,-100.00,East,88,7.0,13.0,50,0.00,,,0.00,938.000000,,2013-06-15 19:52:00,
2013-06-15 14:53:00,85.0,64.0,-100.00,ENE,74,7.0,12.0,50,0.00,,,0.00,912.000000,,2013-06-15 19:53:00,
2013-06-15 15:11:00,85.0,64.0,-100.00,ENE,74,7.0,12.0,50,0.00,,,0.00,912.000000,,2013-06-15 20:11:00,
2013-06-15 15:22:00,85.0,64.0,-100.00,ENE,74,7.0,12.0,50,0.00,,,0.00,912.000000,,2013-06-15 20:22:00,
2013-06-15 15:33:00,85.0,64.0,-100.00,ENE,74,7.0,12.0,50,0.00,,,0.00,912.000000,,2013-06-15 20:33:00,
2013-06-15 15:43:00,85.0,64.0,-100.00,ENE,74,7.0,12.0,50,0.00,,,0.00,912.000000,,2013-06-15 20:43:00,
2013-06-15 16:12:00,86.0,64.0,-100.00,ENE,66,5.0,16.0,48,0.00,,,0.00,713.000000,,2013-06-15 21:12:00,
2013-06-15 16:22:00,86.0,64.0,-100.00,ENE,66,5.0,16.0,48,0.00,,,0.00,713.000000,,2013-06-15 21:22:00,
2013-06-15 16:33:00,86.0,64.0,-100.00,ENE,66,5.0,16.0,48,0.00,,,0.00,713.000000,,2013-06-15 21:33:00,
2013-06-15 16:42:00,86.0,64.0,-100.00,ENE,66,5.0,16.0,48,0.00,,,0.00,713.000000,,2013-06-15 21:42:00,
2013-06-15 16:52:00,86.0,64.0,-100.00,ENE,66,5.0,16.0,48,0.00,,,0.00,713.000000,,2013-06-15 21:52:00,
2013-06-15 16:53:00,86.0,67.0,-100.00,NW,310,2.0,7.0,53,0.00,,,0.00,415.000000,,2013-06-15 21:53:00,
2013-06-15 17:11:00,86.0,67.0,-100.00,NW,310,2.0,7.0,53,0.00,,,0.00,415.000000,,2013-06-15 22:11:00,
2013-06-15 17:22:00,86.0,67.0,-100.00,NW,310,2.0,7.0,53,0.00,,,0.00,415.000000,,2013-06-15 22:22:00,
2013-06-15 17:33:00,86.0,67.0,-100.00,NW,310,2.0,7.0,53,0.00,,,0.00,415.000000,,2013-06-15 22:33:00,
2013-06-15 17:42:00,86.0,67.0,-100.00,NW,310,2.0,7.0,53,0.00,,,0.00,415.000000,,2013-06-15 22:42:00,
2013-06-15 17:53:00,83.0,70.0,-100.00,West,266,1.0,4.0,64,0.00,,,0.00,261.000000,,2013-06-15 22:53:00,
2013-06-15 18:12:00,83.0,70.0,-100.00,West,266,1.0,4.0,64,0.00,,,0.00,261.000000,,2013-06-15 23:12:00,
2013-06-15 18:22:00,83.0,70.0,-100.00,West,266,1.0,4.0,64,0.00,,,0.00,261.000000,,2013-06-15 23:22:00,
2013-06-15 18:33:00,83.0,70.0,-100.00,West,266,1.0,4.0,64,0.00,,,0.00,261.000000,,2013-06-15 23:33:00,
2013-06-15 18:42:00,83.0,70.0,-100.00,West,266,1.0,4.0,64,0.00,,,0.00,261.000000,,2013-06-15 23:42:00,
2013-06-15 19:11:00,82.0,71.0,-100.00,NW,306,0.0,0.0,69,0.00,,,0.00,126.000000,,2013-06-16 00:11:00,
2013-06-15 19:22:00,82.0,71.0,-100.00,NW,306,0.0,0.0,69,0.00,,,0.00,126.000000,,2013-06-16 00:22:00,
2013-06-15 19:34:00,82.0,71.0,-100.00,NW,306,0.0,0.0,69,0.00,,,0.00,126.000000,,2013-06-16 00:34:00,
2013-06-15 19:43:00,82.0,71.0,-100.00,NW,306,0.0,0.0,69,0.00,,,0.00,126.000000,,2013-06-16 00:43:00,
2013-06-15 19:52:00,82.0,71.0,-100.00,NW,306,0.0,0.0,69,0.00,,,0.00,126.000000,,2013-06-16 00:52:00,
2013-06-15 19:53:00,79.0,73.0,-100.00,West,271,0.0,0.0,81,0.00,,,0.00,68.000000,,2013-06-16 00:53:00,
2013-06-15 20:11:00,79.0,73.0,-100.00,West,271,0.0,0.0,81,0.00,,,0.00,68.000000,,2013-06-16 01:11:00,
2013-06-15 20:22:00,79.0,73.0,-100.00,West,271,0.0,0.0,81,0.00,,,0.00,68.000000,,2013-06-16 01:22:00,
2013-06-15 20:33:00,79.0,73.0,-100.00,West,271,0.0,0.0,81,0.00,,,0.00,68.000000,,2013-06-16 01:33:00,
2013-06-15 20:42:00,79.0,73.0,-100.00,West,271,0.0,0.0,81,0.00,,,0.00,68.000000,,2013-06-16 01:42:00,
2013-06-15 20:53:00,76.0,73.0,-100.00,SW,216,0.0,0.0,90,0.00,,,0.00,7.000000,,2013-06-16 01:53:00,
2013-06-15 21:12:00,76.0,73.0,-100.00,SW,216,0.0,0.0,90,0.00,,,0.00,7.000000,,2013-06-16 02:12:00,
2013-06-15 21:22:00,76.0,73.0,-100.00,SW,216,0.0,0.0,90,0.00,,,0.00,7.000000,,2013-06-16 02:22:00,
2013-06-15 21:33:00,76.0,73.0,-100.00,SW,216,0.0,0.0,90,0.00,,,0.00,7.000000,,2013-06-16 02:33:00,
2013-06-15 21:43:00,76.0,73.0,-100.00,SW,216,0.0,0.0,90,0.00,,,0.00,7.000000,,2013-06-16 02:43:00,
2013-06-15 21:53:00,74.0,72.0,-100.00,SE,137,0.0,0.0,93,0.00,,,0.00,1.000000,,2013-06-16 02:53:00,
2013-06-15 22:12:00,74.0,72.0,-100.00,SE,137,0.0,0.0,93,0.00,,,0.00,1.000000,,2013-06-16 03:12:00,
2013-06-15 22:22:00,74.0,72.0,-100.00,SE,137,0.0,0.0,93,0.00,,,0.00,1.000000,,2013-06-16 03:22:00,
2013-06-15 22:33:00,74.0,72.0,-100.00,SE,137,0.0,0.0,93,0.00,,,0.00,1.000000,,2013-06-16 03:33:00,
2013-06-15 22:43:00,74.0,72.0,-100.00,SE,137,0.0,0.0,93,0.00,,,0.00,1.000000,,2013-06-16 03:43:00,
2013-06-15 22:53:00,71.0,69.0,-100.00,North,2,0.0,0.0,95,0.00,,,0.00,1.000000,,2013-06-16 03:53:00,
2013-06-15 23:12:00,71.0,69.0,-100.00,North,2,0.0,0.0,95,0.00,,,0.00,1.000000,,2013-06-16 04:12:00,
2013-06-15 23:23:00,71.0,69.0,-100.00,North,2,0.0,0.0,95,0.00,,,0.00,1.000000,,2013-06-16 04:23:00,
2013-06-15 23:33:00,71.0,69.0,-100.00,North,2,0.0,0.0,95,0.00,,,0.00,1.000000,,2013-06-16 04:33:00,
2013-06-15 23:42:00,71.0,69.0,-100.00,North,2,0.0,0.0,95,0.00,,,0.00,1.000000,,2013-06-16 04:42:00,